Norwegian Jewel — C6TX6 — position and weather

sailwx.info

Track history (hours):
 
Tides and Currents Weather Stations Pressure Air Temp Water Temp Dewpoint Dewpoint Depression Visibility Wind Speed Wind Dir Waves Ship Positions

Norwegian Jewel

Last reported at 2019-Jun-16 23:30 UTC. Time now 2019-Jun-17 18:57 UTC.
Position N 51°01' W 127°58'.

Type: Passenger vessel. MMSI: 311827000.

Date/timePositionNaut miles runAvg speedWind from/ knotsBaromVisibWave heightAir tempDewpointWater temp
2019-Jun-16 23:30N 51°01' W 127°58'714.5
2019-Jun-16 23:00N 51°03' W 128°09'714.8
2019-Jun-16 22:30N 51°06' W 128°20'816.5
2019-Jun-16 22:00N 51°08' W 128°32'816.7
2019-Jun-16 21:30N 51°11' W 128°45'816.9
2019-Jun-16 21:00N 51°14' W 128°58'917.1
2019-Jun-16 20:30N 51°18' W 129°10'917.2
2019-Jun-16 20:00N 51°22' W 129°22'4269.6
2019-Jun-16 20:00N 51°18' W 129°24'1121.6 180 / 111022.0 11.0
2019-Jun-16 19:30N 51°27' W 129°33'917.3
2019-Jun-16 19:00N 51°35' W 129°40'1516.6
2019-Jun-16 18:06N 51°47' W 129°52'2416.2
2019-Jun-16 16:36N 52°10' W 130°08'215.4
2019-Jun-16 16:27N 52°12' W 130°09'2 3.7
2019-Jun-16 16:00N 52°12' W 130°12'3919.4 180 / 141015.0 0.5 10.0 7.912.0
2019-Jun-16 14:00N 52°48' W 130°36'2219.8 150 / 151021.0 2.2 11.011.013.0
2019-Jun-16 12:54N 53°08' W 130°49'717.6
2019-Jun-16 12:29N 53°15' W 130°53'3 5.9
2019-Jun-16 12:00N 53°18' W 130°54'949.5 180 / 151021.0 2.2 11.011.013.0
2019-Jun-16 11:49N 53°26' W 131°00'518.2
2019-Jun-16 11:30N 53°32' W 131°01'917.8
2019-Jun-16 11:00N 53°41' W 131°03'917.3
2019-Jun-16 10:31N 53°49' W 131°03'917.2
2019-Jun-16 10:01N 53°58' W 131°04'4260.4
2019-Jun-16 10:00N 53°54' W 131°00'1325.8 140 / 211020.0 11.0
2019-Jun-16 09:30N 54°06' W 131°04'917.1
2019-Jun-16 09:01N 54°15' W 131°04'4224.1
2019-Jun-16 09:00N 54°12' W 131°00'1123.1 170 / 131021.0 11.0
2019-Jun-16 08:30N 54°22' W 131°08'917.0
2019-Jun-16 08:00N 54°30' W 131°13'917.3
2019-Jun-16 07:30N 54°39' W 131°14'917.3
2019-Jun-16 07:00N 54°47' W 131°09'916.7
2019-Jun-16 06:27N 54°56' W 131°07'4 8.8
2019-Jun-16 06:00N 55°00' W 131°06'742.4 180 / 181021.0 1.1 13.011.113.0
2019-Jun-16 05:50N 55°07' W 131°09'22 2.0
2019-Jun-15 19:00N 55°18' W 131°42'8614.4 150 / 171018.0 12.012.013.0
2019-Jun-15 13:00N 56°12' W 133°42'2311.7 140 / 41019.010.8 9.0
2019-Jun-15 11:00N 56°12' W 134°24'4321.3 120 / 10
2019-Jun-15 09:00N 56°54' W 134°36'11457.1 180 / 19
2019-Jun-15 07:00N 57°42' W 137°48'82 5.5 140 / 221017.0 12.0 13.0
2019-Jun-14 16:00N 57°24' W 135°18'45 1.2 110 / 31020.0 5.4 14.010.512.0
2019-Jun-13 03:07N 58°09' W 135°16'310.2
2019-Jun-13 02:47N 58°09' W 135°22'3 9.9
2019-Jun-13 02:28N 58°08' W 135°28'1 0.8
2019-Jun-13 01:33N 58°08' W 135°28'1 0.1
2019-Jun-12 15:49N 58°09' W 135°28'4 8.2
2019-Jun-12 15:22N 58°12' W 135°27'513.3
2019-Jun-12 15:00N 58°15' W 135°35'713.5
2019-Jun-12 14:30N 58°18' W 135°46'714.1
2019-Jun-12 14:01N 58°16' W 135°59'714.4
2019-Jun-12 13:30N 58°16' W 136°13'1713.4
2019-Jun-12 12:15N 58°08' W 136°41'12214.6
2019-Jun-12 03:55N 59°16' W 139°57'614.9
2019-Jun-12 03:30N 59°20' W 140°06'  
2019-Jun-09 00:18N 58°18' W 136°15'516.2
2019-Jun-09 00:00N 58°20' W 136°06'5 9.3
2019-Jun-08 23:30N 58°23' W 135°59'4 7.8
2019-Jun-08 23:00N 58°27' W 136°00'611.3
2019-Jun-08 22:31N 58°32' W 136°04'816.2
2019-Jun-08 22:01N 58°40' W 136°05'816.0
2019-Jun-08 21:30N 58°45' W 136°17'917.5
2019-Jun-08 21:00N 58°50' W 136°32'8 1.5
2019-Jun-08 15:22N 58°45' W 136°19'821.6
2019-Jun-08 15:00N 58°39' W 136°08'917.8
2019-Jun-08 14:30N 58°31' W 136°04'612.3
2019-Jun-08 14:00N 58°26' W 135°58'510.5
2019-Jun-08 13:30N 58°20' W 135°57'510.9
2019-Jun-08 13:00N 58°18' W 135°48'611.5
2019-Jun-08 12:30N 58°17' W 135°37'612.5
2019-Jun-08 12:00N 58°15' W 135°26'  
Track history (hours):
 
Tides and Currents Weather Stations Pressure Air Temp Water Temp Dewpoint Dewpoint Depression Visibility Wind Speed Wind Dir Waves Ship Positions

Norwegian Jewel

Last reported at 2019-Jun-16 23:30 UTC. Time now 2019-Jun-17 18:57 UTC.
Position N 51°01' W 127°58'.

Type: Passenger vessel. MMSI: 311827000.

Date/timePositionNaut miles runAvg speedWind from/ knotsBaromVisibWave heightAir tempDewpointWater temp
2019-Jun-16 23:30N 51°01' W 127°58'714.5
2019-Jun-16 23:00N 51°03' W 128°09'714.8
2019-Jun-16 22:30N 51°06' W 128°20'816.5
2019-Jun-16 22:00N 51°08' W 128°32'816.7
2019-Jun-16 21:30N 51°11' W 128°45'816.9
2019-Jun-16 21:00N 51°14' W 128°58'917.1
2019-Jun-16 20:30N 51°18' W 129°10'917.2
2019-Jun-16 20:00N 51°22' W 129°22'4269.6
2019-Jun-16 20:00N 51°18' W 129°24'1121.6 180 / 111022.0 11.0
2019-Jun-16 19:30N 51°27' W 129°33'917.3
2019-Jun-16 19:00N 51°35' W 129°40'1516.6
2019-Jun-16 18:06N 51°47' W 129°52'2416.2
2019-Jun-16 16:36N 52°10' W 130°08'215.4
2019-Jun-16 16:27N 52°12' W 130°09'2 3.7
2019-Jun-16 16:00N 52°12' W 130°12'3919.4 180 / 141015.0 0.5 10.0 7.912.0
2019-Jun-16 14:00N 52°48' W 130°36'2219.8 150 / 151021.0 2.2 11.011.013.0
2019-Jun-16 12:54N 53°08' W 130°49'717.6
2019-Jun-16 12:29N 53°15' W 130°53'3 5.9
2019-Jun-16 12:00N 53°18' W 130°54'949.5 180 / 151021.0 2.2 11.011.013.0
2019-Jun-16 11:49N 53°26' W 131°00'518.2
2019-Jun-16 11:30N 53°32' W 131°01'917.8
2019-Jun-16 11:00N 53°41' W 131°03'917.3
2019-Jun-16 10:31N 53°49' W 131°03'917.2
2019-Jun-16 10:01N 53°58' W 131°04'4260.4
2019-Jun-16 10:00N 53°54' W 131°00'1325.8 140 / 211020.0 11.0
2019-Jun-16 09:30N 54°06' W 131°04'917.1
2019-Jun-16 09:01N 54°15' W 131°04'4224.1
2019-Jun-16 09:00N 54°12' W 131°00'1123.1 170 / 131021.0 11.0
2019-Jun-16 08:30N 54°22' W 131°08'917.0
2019-Jun-16 08:00N 54°30' W 131°13'917.3
2019-Jun-16 07:30N 54°39' W 131°14'917.3
2019-Jun-16 07:00N 54°47' W 131°09'916.7
2019-Jun-16 06:27N 54°56' W 131°07'4 8.8
2019-Jun-16 06:00N 55°00' W 131°06'742.4 180 / 181021.0 1.1 13.011.113.0
2019-Jun-16 05:50N 55°07' W 131°09'22 2.0
2019-Jun-15 19:00N 55°18' W 131°42'8614.4 150 / 171018.0 12.012.013.0
2019-Jun-15 13:00N 56°12' W 133°42'2311.7 140 / 41019.010.8 9.0
2019-Jun-15 11:00N 56°12' W 134°24'4321.3 120 / 10
2019-Jun-15 09:00N 56°54' W 134°36'11457.1 180 / 19
2019-Jun-15 07:00N 57°42' W 137°48'82 5.5 140 / 221017.0 12.0 13.0
2019-Jun-14 16:00N 57°24' W 135°18'45 1.2 110 / 31020.0 5.4 14.010.512.0
2019-Jun-13 03:07N 58°09' W 135°16'310.2
2019-Jun-13 02:47N 58°09' W 135°22'3 9.9
2019-Jun-13 02:28N 58°08' W 135°28'1 0.8
2019-Jun-13 01:33N 58°08' W 135°28'1 0.1
2019-Jun-12 15:49N 58°09' W 135°28'4 8.2
2019-Jun-12 15:22N 58°12' W 135°27'513.3
2019-Jun-12 15:00N 58°15' W 135°35'713.5
2019-Jun-12 14:30N 58°18' W 135°46'714.1
2019-Jun-12 14:01N 58°16' W 135°59'714.4
2019-Jun-12 13:30N 58°16' W 136°13'1713.4
2019-Jun-12 12:15N 58°08' W 136°41'12214.6
2019-Jun-12 03:55N 59°16' W 139°57'614.9
2019-Jun-12 03:30N 59°20' W 140°06'  
2019-Jun-09 00:18N 58°18' W 136°15'516.2
2019-Jun-09 00:00N 58°20' W 136°06'5 9.3
2019-Jun-08 23:30N 58°23' W 135°59'4 7.8
2019-Jun-08 23:00N 58°27' W 136°00'611.3
2019-Jun-08 22:31N 58°32' W 136°04'816.2
2019-Jun-08 22:01N 58°40' W 136°05'816.0
2019-Jun-08 21:30N 58°45' W 136°17'917.5
2019-Jun-08 21:00N 58°50' W 136°32'8 1.5
2019-Jun-08 15:22N 58°45' W 136°19'821.6
2019-Jun-08 15:00N 58°39' W 136°08'917.8
2019-Jun-08 14:30N 58°31' W 136°04'612.3
2019-Jun-08 14:00N 58°26' W 135°58'510.5
2019-Jun-08 13:30N 58°20' W 135°57'510.9
2019-Jun-08 13:00N 58°18' W 135°48'611.5
2019-Jun-08 12:30N 58°17' W 135°37'612.5
2019-Jun-08 12:00N 58°15' W 135°26'  

Dump ship's entire track history